sensor_id;sensor_type;location;lat;lon;timestamp;pressure;altitude;pressure_sealevel;temperature;humidity
54850;BME280;47660;51.334;12.396;2023-09-19T00:02:16;99367.31;;;38.64;32.85
54850;BME280;47660;51.334;12.396;2023-09-19T00:04:41;99365.78;;;38.58;32.65
54850;BME280;47660;51.334;12.396;2023-09-19T00:07:08;99361.66;;;38.41;33.41
54850;BME280;47660;51.334;12.396;2023-09-19T00:09:34;99369.47;;;38.39;33.02
54850;BME280;47660;51.334;12.396;2023-09-19T00:12:05;99366.59;;;38.44;33.20
54850;BME280;47660;51.334;12.396;2023-09-19T00:14:30;99371.69;;;38.37;33.14
54850;BME280;47660;51.334;12.396;2023-09-19T00:16:59;99383.25;;;38.44;33.44
54850;BME280;47660;51.334;12.396;2023-09-19T00:19:25;99373.91;;;38.40;33.25
54850;BME280;47660;51.334;12.396;2023-09-19T00:21:51;99384.38;;;38.43;33.19
54850;BME280;47660;51.334;12.396;2023-09-19T00:24:18;99386.31;;;38.29;33.18
54850;BME280;47660;51.334;12.396;2023-09-19T00:26:43;99384.91;;;38.45;33.25
54850;BME280;47660;51.334;12.396;2023-09-19T00:29:08;99372.66;;;38.46;33.07
54850;BME280;47660;51.334;12.396;2023-09-19T00:31:34;99382.97;;;38.46;33.18
54850;BME280;47660;51.334;12.396;2023-09-19T00:34:02;99367.84;;;38.52;32.83
54850;BME280;47660;51.334;12.396;2023-09-19T00:36:35;99367.41;;;38.59;32.65
54850;BME280;47660;51.334;12.396;2023-09-19T00:39:00;99360.63;;;38.65;32.66
54850;BME280;47660;51.334;12.396;2023-09-19T00:41:26;99369.47;;;38.67;32.79
54850;BME280;47660;51.334;12.396;2023-09-19T00:43:52;99357.22;;;38.68;32.67
54850;BME280;47660;51.334;12.396;2023-09-19T00:46:17;99363.69;;;38.63;32.62
54850;BME280;47660;51.334;12.396;2023-09-19T00:48:42;99356.09;;;38.55;32.78
54850;BME280;47660;51.334;12.396;2023-09-19T00:51:08;99359.09;;;38.59;32.80
54850;BME280;47660;51.334;12.396;2023-09-19T00:53:34;99359.28;;;38.48;32.79
54850;BME280;47660;51.334;12.396;2023-09-19T00:55:59;99349.22;;;38.53;32.94
54850;BME280;47660;51.334;12.396;2023-09-19T00:58:25;99361.34;;;38.57;32.65
54850;BME280;47660;51.334;12.396;2023-09-19T01:00:50;99361.34;;;38.57;32.69
54850;BME280;47660;51.334;12.396;2023-09-19T01:03:17;99361.16;;;38.53;32.70
54850;BME280;47660;51.334;12.396;2023-09-19T01:05:43;99368.66;;;38.53;32.76
54850;BME280;47660;51.334;12.396;2023-09-19T01:08:08;99368.66;;;38.53;32.73
54850;BME280;47660;51.334;12.396;2023-09-19T01:10:44;99368.56;;;38.44;32.95
54850;BME280;47660;51.334;12.396;2023-09-19T01:16:32;99375.09;;;38.34;33.01
54850;BME280;47660;51.334;12.396;2023-09-19T01:19:07;99371.25;;;38.49;32.80
54850;BME280;47660;51.334;12.396;2023-09-19T01:22:00;99367.44;;;38.45;32.73
54850;BME280;47660;51.334;12.396;2023-09-19T01:30:24;99377.59;;;38.63;32.91
54850;BME280;47660;51.334;12.396;2023-09-19T01:32:52;99383.97;;;38.64;32.85
54850;BME280;47660;51.334;12.396;2023-09-19T01:35:18;99390.56;;;38.68;32.55
54850;BME280;47660;51.334;12.396;2023-09-19T01:37:44;99391.44;;;38.36;32.94
54850;BME280;47660;51.334;12.396;2023-09-19T01:40:12;99398.06;;;38.54;32.87
54850;BME280;47660;51.334;12.396;2023-09-19T01:42:59;99391.47;;;38.77;32.49
54850;BME280;47660;51.334;12.396;2023-09-19T01:45:37;99394.75;;;38.66;32.48
54850;BME280;47660;51.334;12.396;2023-09-19T01:50:59;99409.47;;;38.66;32.67
54850;BME280;47660;51.334;12.396;2023-09-19T01:53:33;99403.09;;;38.66;32.42
54850;BME280;47660;51.334;12.396;2023-09-19T01:56:00;99411.03;;;38.72;32.39
54850;BME280;47660;51.334;12.396;2023-09-19T01:58:34;99411.03;;;38.72;32.56
54850;BME280;47660;51.334;12.396;2023-09-19T02:01:01;99409.78;;;38.64;32.52
54850;BME280;47660;51.334;12.396;2023-09-19T02:03:27;99420.25;;;38.68;32.61
54850;BME280;47660;51.334;12.396;2023-09-19T02:05:54;99421.09;;;38.68;32.74
54850;BME280;47660;51.334;12.396;2023-09-19T02:08:21;99425.53;;;38.69;32.52
54850;BME280;47660;51.334;12.396;2023-09-19T02:10:48;99429.31;;;38.59;32.68
54850;BME280;47660;51.334;12.396;2023-09-19T02:13:17;99439.81;;;38.62;32.51
54850;BME280;47660;51.334;12.396;2023-09-19T02:15:44;99434.75;;;38.64;32.78
54850;BME280;47660;51.334;12.396;2023-09-19T02:18:10;99436.13;;;38.67;32.61
54850;BME280;47660;51.334;12.396;2023-09-19T02:20:36;99443.31;;;38.68;32.66
54850;BME280;47660;51.334;12.396;2023-09-19T02:23:02;99458.44;;;38.62;32.48
54850;BME280;47660;51.334;12.396;2023-09-19T02:25:28;99452.34;;;38.60;32.39
54850;BME280;47660;51.334;12.396;2023-09-19T02:27:53;99458.34;;;38.67;32.40
54850;BME280;47660;51.334;12.396;2023-09-19T02:30:19;99447.84;;;38.64;32.74
54850;BME280;47660;51.334;12.396;2023-09-19T02:32:46;99443.31;;;38.68;32.36
54850;BME280;47660;51.334;12.396;2023-09-19T02:35:11;99450.53;;;38.69;32.63
54850;BME280;47660;51.334;12.396;2023-09-19T02:37:37;99444.44;;;38.67;32.34
54850;BME280;47660;51.334;12.396;2023-09-19T02:40:03;99442.81;;;38.66;32.44
54850;BME280;47660;51.334;12.396;2023-09-19T02:42:31;99441.88;;;38.71;32.04
54850;BME280;47660;51.334;12.396;2023-09-19T02:44:56;99434.47;;;38.66;32.49
54850;BME280;47660;51.334;12.396;2023-09-19T02:47:22;99424.28;;;38.75;32.37
54850;BME280;47660;51.334;12.396;2023-09-19T02:49:47;99438.66;;;38.63;32.61
54850;BME280;47660;51.334;12.396;2023-09-19T02:52:13;99439.91;;;38.71;32.18
54850;BME280;47660;51.334;12.396;2023-09-19T02:54:39;99431.59;;;38.71;32.01
54850;BME280;47660;51.334;12.396;2023-09-19T02:57:05;99441.88;;;38.71;32.19
54850;BME280;47660;51.334;12.396;2023-09-19T02:59:31;99441.75;;;38.76;31.94
54850;BME280;47660;51.334;12.396;2023-09-19T03:01:57;99444.88;;;38.74;32.44
54850;BME280;47660;51.334;12.396;2023-09-19T03:04:22;99445.25;;;38.68;32.17
54850;BME280;47660;51.334;12.396;2023-09-19T03:06:48;99451.44;;;38.64;32.21
54850;BME280;47660;51.334;12.396;2023-09-19T03:09:16;99450.91;;;38.62;32.22
54850;BME280;47660;51.334;12.396;2023-09-19T03:11:42;99452.66;;;38.58;32.52
54850;BME280;47660;51.334;12.396;2023-09-19T03:14:07;99447.63;;;38.60;32.24
54850;BME280;47660;51.334;12.396;2023-09-19T03:16:35;99454.00;;;38.61;32.38
54850;BME280;47660;51.334;12.396;2023-09-19T03:19:02;99450.53;;;38.69;32.36
54850;BME280;47660;51.334;12.396;2023-09-19T03:21:27;99456.25;;;38.59;32.20
54850;BME280;47660;51.334;12.396;2023-09-19T03:23:54;99450.72;;;38.59;32.10
54850;BME280;47660;51.334;12.396;2023-09-19T03:26:20;99464.50;;;38.64;32.46
54850;BME280;47660;51.334;12.396;2023-09-19T03:28:45;99470.66;;;38.61;32.41
54850;BME280;47660;51.334;12.396;2023-09-19T03:31:12;99460.69;;;38.60;32.39
54850;BME280;47660;51.334;12.396;2023-09-19T03:33:37;99470.06;;;38.50;32.60
54850;BME280;47660;51.334;12.396;2023-09-19T03:36:03;99469.22;;;38.49;32.52
54850;BME280;47660;51.334;12.396;2023-09-19T03:38:30;99475.88;;;38.48;32.55
54850;BME280;47660;51.334;12.396;2023-09-19T03:40:55;99480.72;;;38.43;32.66
54850;BME280;47660;51.334;12.396;2023-09-19T03:43:21;99481.53;;;38.43;32.46
54850;BME280;47660;51.334;12.396;2023-09-19T03:45:46;99480.94;;;38.46;32.51
54850;BME280;47660;51.334;12.396;2023-09-19T03:48:12;99477.97;;;38.57;32.39
54850;BME280;47660;51.334;12.396;2023-09-19T03:50:37;99476.75;;;38.63;32.05
54850;BME280;47660;51.334;12.396;2023-09-19T03:53:03;99476.13;;;38.66;32.13
54850;BME280;47660;51.334;12.396;2023-09-19T03:55:28;99487.53;;;38.64;32.15
54850;BME280;47660;51.334;12.396;2023-09-19T03:57:55;99491.75;;;38.62;32.37
54850;BME280;47660;51.334;12.396;2023-09-19T04:00:20;99483.72;;;38.60;32.38
54850;BME280;47660;51.334;12.396;2023-09-19T04:02:48;99481.06;;;38.69;32.08
54850;BME280;47660;51.334;12.396;2023-09-19T04:05:14;99483.00;;;38.69;32.21
54850;BME280;47660;51.334;12.396;2023-09-19T04:07:39;99491.44;;;38.63;32.15
54850;BME280;47660;51.334;12.396;2023-09-19T04:10:05;99493.16;;;38.59;32.13
54850;BME280;47660;51.334;12.396;2023-09-19T04:12:31;99494.50;;;38.48;32.26
54850;BME280;47660;51.334;12.396;2023-09-19T04:14:57;99487.50;;;38.51;32.46
54850;BME280;47660;51.334;12.396;2023-09-19T04:17:22;99494.94;;;38.36;32.57
54850;BME280;47660;51.334;12.396;2023-09-19T04:19:48;99501.72;;;38.30;32.46
54850;BME280;47660;51.334;12.396;2023-09-19T04:22:13;99510.22;;;38.06;33.09
54850;BME280;47660;51.334;12.396;2023-09-19T04:24:38;99503.75;;;38.57;32.47
54850;BME280;47660;51.334;12.396;2023-09-19T04:27:04;99513.03;;;38.67;32.30
54850;BME280;47660;51.334;12.396;2023-09-19T04:29:30;99512.84;;;38.63;32.09
54850;BME280;47660;51.334;12.396;2023-09-19T04:31:56;99513.34;;;38.65;32.19
54850;BME280;47660;51.334;12.396;2023-09-19T04:34:24;99516.94;;;38.66;32.34
54850;BME280;47660;51.334;12.396;2023-09-19T04:36:50;99519.63;;;38.71;32.06
54850;BME280;47660;51.334;12.396;2023-09-19T04:39:15;99529.31;;;38.73;31.93
54850;BME280;47660;51.334;12.396;2023-09-19T04:41:41;99529.81;;;38.75;31.77
54850;BME280;47660;51.334;12.396;2023-09-19T04:44:07;99540.63;;;38.77;31.71
54850;BME280;47660;51.334;12.396;2023-09-19T04:46:33;99542.34;;;38.73;31.96
54850;BME280;47660;51.334;12.396;2023-09-19T04:48:58;99542.97;;;38.70;32.14
54850;BME280;47660;51.334;12.396;2023-09-19T04:51:24;99546.06;;;38.68;31.89
54850;BME280;47660;51.334;12.396;2023-09-19T04:53:50;99550.88;;;38.29;32.47
54850;BME280;47660;51.334;12.396;2023-09-19T04:56:16;99556.72;;;38.47;32.48
54850;BME280;47660;51.334;12.396;2023-09-19T04:58:41;99547.47;;;38.66;32.21
54850;BME280;47660;51.334;12.396;2023-09-19T05:01:06;99551.09;;;38.66;32.18
54850;BME280;47660;51.334;12.396;2023-09-19T05:03:36;99543.28;;;38.82;31.92
54850;BME280;47660;51.334;12.396;2023-09-19T05:06:02;99553.03;;;38.32;32.29
54850;BME280;47660;51.334;12.396;2023-09-19T05:08:27;99562.28;;;38.09;32.88
54850;BME280;47660;51.334;12.396;2023-09-19T05:10:53;99550.34;;;38.60;32.38
54850;BME280;47660;51.334;12.396;2023-09-19T05:13:18;99555.09;;;38.60;32.47
54850;BME280;47660;51.334;12.396;2023-09-19T05:15:43;99570.22;;;38.68;32.14
54850;BME280;47660;51.334;12.396;2023-09-19T05:18:09;99573.00;;;38.68;32.28
54850;BME280;47660;51.334;12.396;2023-09-19T05:20:35;99582.69;;;38.70;32.24
54850;BME280;47660;51.334;12.396;2023-09-19T05:23:06;99584.19;;;38.62;32.27
54850;BME280;47660;51.334;12.396;2023-09-19T05:25:37;99584.78;;;38.59;32.05
54850;BME280;47660;51.334;12.396;2023-09-19T05:28:04;99591.19;;;38.60;31.97
54850;BME280;47660;51.334;12.396;2023-09-19T05:30:31;99597.59;;;38.74;32.00
54850;BME280;47660;51.334;12.396;2023-09-19T05:32:57;99593.69;;;38.75;31.73
54850;BME280;47660;51.334;12.396;2023-09-19T05:35:23;99601.50;;;38.73;31.46
54850;BME280;47660;51.334;12.396;2023-09-19T05:37:50;99606.94;;;38.78;31.53
54850;BME280;47660;51.334;12.396;2023-09-19T05:40:17;99603.47;;;38.73;30.65
54850;BME280;47660;51.334;12.396;2023-09-19T05:42:42;99609.44;;;38.80;30.98
54850;BME280;47660;51.334;12.396;2023-09-19T05:45:09;99617.16;;;38.83;31.06
54850;BME280;47660;51.334;12.396;2023-09-19T05:47:37;99619.09;;;38.83;31.59
54850;BME280;47660;51.334;12.396;2023-09-19T05:50:02;99619.88;;;38.88;31.56
54850;BME280;47660;51.334;12.396;2023-09-19T05:52:28;99621.59;;;38.84;31.67
54850;BME280;47660;51.334;12.396;2023-09-19T05:54:53;99626.91;;;39.00;31.00
54850;BME280;47660;51.334;12.396;2023-09-19T05:57:19;99631.22;;;39.06;30.45
54850;BME280;47660;51.334;12.396;2023-09-19T05:59:44;99633.47;;;39.04;29.79
54850;BME280;47660;51.334;12.396;2023-09-19T06:02:10;99637.28;;;39.08;29.78
54850;BME280;47660;51.334;12.396;2023-09-19T06:04:37;99631.63;;;39.27;29.43
54850;BME280;47660;51.334;12.396;2023-09-19T06:07:05;99640.75;;;39.33;28.87
54850;BME280;47660;51.334;12.396;2023-09-19T06:09:31;99643.72;;;39.36;28.76
54850;BME280;47660;51.334;12.396;2023-09-19T06:11:57;99658.13;;;39.39;28.79
54850;BME280;47660;51.334;12.396;2023-09-19T06:14:22;99654.53;;;39.38;28.72
54850;BME280;47660;51.334;12.396;2023-09-19T06:16:49;99663.81;;;39.47;28.79
54850;BME280;47660;51.334;12.396;2023-09-19T06:19:15;99661.81;;;39.76;28.17
54850;BME280;47660;51.334;12.396;2023-09-19T06:21:40;99666.19;;;40.19;27.95
54850;BME280;47660;51.334;12.396;2023-09-19T06:24:06;99664.38;;;40.14;27.81
54850;BME280;47660;51.334;12.396;2023-09-19T06:26:32;99659.00;;;40.18;27.76
54850;BME280;47660;51.334;12.396;2023-09-19T06:28:57;99665.19;;;40.51;27.22
54850;BME280;47660;51.334;12.396;2023-09-19T06:31:23;99656.16;;;40.68;27.04
54850;BME280;47660;51.334;12.396;2023-09-19T06:33:51;99663.81;;;40.86;26.97
54850;BME280;47660;51.334;12.396;2023-09-19T06:36:17;99655.84;;;41.02;26.09
54850;BME280;47660;51.334;12.396;2023-09-19T06:38:42;99652.28;;;41.10;26.36
54850;BME280;47660;51.334;12.396;2023-09-19T06:52:28;99669.56;;;42.45;22.67
54850;BME280;47660;51.334;12.396;2023-09-19T06:54:54;99670.00;;;43.48;21.19
54850;BME280;47660;51.334;12.396;2023-09-19T06:57:19;99679.31;;;40.18;24.05
54850;BME280;47660;51.334;12.396;2023-09-19T06:59:45;99679.88;;;42.01;22.04
54850;BME280;47660;51.334;12.396;2023-09-19T07:02:10;99680.09;;;43.70;20.86
54850;BME280;47660;51.334;12.396;2023-09-19T07:04:36;99680.63;;;44.57;19.69
54850;BME280;47660;51.334;12.396;2023-09-19T07:07:01;99677.84;;;44.15;20.17
54850;BME280;47660;51.334;12.396;2023-09-19T07:09:26;99680.19;;;43.53;20.17
54850;BME280;47660;51.334;12.396;2023-09-19T07:11:53;99695.50;;;42.90;20.31
54850;BME280;47660;51.334;12.396;2023-09-19T07:14:19;99687.44;;;43.84;19.45
54850;BME280;47660;51.334;12.396;2023-09-19T07:16:44;99703.75;;;41.58;20.59
54850;BME280;47660;51.334;12.396;2023-09-19T07:19:10;99700.88;;;40.86;21.57
54850;BME280;47660;51.334;12.396;2023-09-19T07:21:36;99698.91;;;40.50;21.64
54850;BME280;47660;51.334;12.396;2023-09-19T07:24:03;99703.44;;;40.09;22.46
54850;BME280;47660;51.334;12.396;2023-09-19T07:26:29;99707.72;;;41.43;20.74
54850;BME280;47660;51.334;12.396;2023-09-19T07:28:54;99719.72;;;38.99;22.48
54850;BME280;47660;51.334;12.396;2023-09-19T07:31:19;99735.59;;;38.41;23.31
54850;BME280;47660;51.334;12.396;2023-09-19T07:33:45;99742.59;;;36.06;25.92
54850;BME280;47660;51.334;12.396;2023-09-19T07:36:11;99746.84;;;35.67;26.87
54850;BME280;47660;51.334;12.396;2023-09-19T07:38:39;99736.78;;;39.25;22.88
54850;BME280;47660;51.334;12.396;2023-09-19T07:41:04;99744.59;;;40.86;21.59
54850;BME280;47660;51.334;12.396;2023-09-19T07:43:30;99744.91;;;39.96;21.42
54850;BME280;47660;51.334;12.396;2023-09-19T07:45:56;99743.97;;;39.87;21.64
54850;BME280;47660;51.334;12.396;2023-09-19T07:48:22;99758.03;;;41.29;20.44
54850;BME280;47660;51.334;12.396;2023-09-19T07:50:48;99761.88;;;41.42;20.15
54850;BME280;47660;51.334;12.396;2023-09-19T07:53:13;99775.53;;;38.21;23.06
54850;BME280;47660;51.334;12.396;2023-09-19T07:55:40;99761.47;;;36.99;24.41
54850;BME280;47660;51.334;12.396;2023-09-19T07:58:06;99770.69;;;36.84;25.08
54850;BME280;47660;51.334;12.396;2023-09-19T08:00:32;99771.97;;;38.15;23.50
54850;BME280;47660;51.334;12.396;2023-09-19T08:03:00;99777.56;;;38.10;24.03
54850;BME280;47660;51.334;12.396;2023-09-19T08:05:25;99776.13;;;36.94;24.63
54850;BME280;47660;51.334;12.396;2023-09-19T08:07:51;99783.03;;;35.76;26.32
54850;BME280;47660;51.334;12.396;2023-09-19T08:10:17;99784.16;;;37.01;24.80
54850;BME280;47660;51.334;12.396;2023-09-19T08:12:45;99789.16;;;35.52;26.61
54850;BME280;47660;51.334;12.396;2023-09-19T08:15:15;99798.16;;;34.70;27.46
54850;BME280;47660;51.334;12.396;2023-09-19T08:17:41;99800.31;;;33.56;28.93
54850;BME280;47660;51.334;12.396;2023-09-19T08:20:07;99794.06;;;34.14;28.07
54850;BME280;47660;51.334;12.396;2023-09-19T08:22:33;99803.25;;;32.84;29.55
54850;BME280;47660;51.334;12.396;2023-09-19T08:24:58;99798.78;;;33.70;28.98
54850;BME280;47660;51.334;12.396;2023-09-19T08:27:24;99803.44;;;32.77;29.80
54850;BME280;47660;51.334;12.396;2023-09-19T08:29:53;99792.53;;;32.60;30.22
54850;BME280;47660;51.334;12.396;2023-09-19T08:32:18;99794.16;;;32.34;30.99
54850;BME280;47660;51.334;12.396;2023-09-19T08:34:48;99794.72;;;33.13;29.67
54850;BME280;47660;51.334;12.396;2023-09-19T08:37:14;99795.88;;;33.50;29.82
54850;BME280;47660;51.334;12.396;2023-09-19T08:39:39;99797.88;;;33.59;29.82
54850;BME280;47660;51.334;12.396;2023-09-19T08:42:04;99796.56;;;34.10;28.84
54850;BME280;47660;51.334;12.396;2023-09-19T08:44:30;99794.50;;;33.90;29.31
54850;BME280;47660;51.334;12.396;2023-09-19T08:47:09;99791.56;;;34.76;28.68
54850;BME280;47660;51.334;12.396;2023-09-19T08:50:04;99791.28;;;37.42;25.42
54850;BME280;47660;51.334;12.396;2023-09-19T08:52:41;99791.59;;;37.99;25.00
54850;BME280;47660;51.334;12.396;2023-09-19T08:55:12;99790.19;;;36.03;26.95
54850;BME280;47660;51.334;12.396;2023-09-19T08:57:38;99799.19;;;37.29;25.66
54850;BME280;47660;51.334;12.396;2023-09-19T09:00:07;99803.31;;;37.91;24.63
54850;BME280;47660;51.334;12.396;2023-09-19T09:02:38;99800.44;;;38.50;24.02
54850;BME280;47660;51.334;12.396;2023-09-19T09:05:07;99788.28;;;40.11;22.67
54850;BME280;47660;51.334;12.396;2023-09-19T09:07:35;99784.72;;;40.48;21.88
54850;BME280;47660;51.334;12.396;2023-09-19T09:10:02;99788.69;;;40.83;21.57
54850;BME280;47660;51.334;12.396;2023-09-19T09:12:29;99785.44;;;42.66;20.21
54850;BME280;47660;51.334;12.396;2023-09-19T09:14:55;99801.75;;;41.65;20.64
54850;BME280;47660;51.334;12.396;2023-09-19T09:17:23;99790.19;;;40.67;22.08
54850;BME280;47660;51.334;12.396;2023-09-19T09:19:48;99796.78;;;40.94;21.52
54850;BME280;47660;51.334;12.396;2023-09-19T09:22:13;99793.69;;;40.59;21.96
54850;BME280;47660;51.334;12.396;2023-09-19T09:24:54;99789.50;;;41.84;20.75
54850;BME280;47660;51.334;12.396;2023-09-19T09:27:23;99797.09;;;41.61;20.84
54850;BME280;47660;51.334;12.396;2023-09-19T09:29:50;99790.91;;;40.95;20.33
54850;BME280;47660;51.334;12.396;2023-09-19T09:32:20;99786.50;;;41.17;20.63
54850;BME280;47660;51.334;12.396;2023-09-19T09:34:50;99782.59;;;40.45;21.82
54850;BME280;47660;51.334;12.396;2023-09-19T09:37:16;99790.63;;;39.76;21.20
54850;BME280;47660;51.334;12.396;2023-09-19T09:39:52;99788.69;;;41.83;17.75
54850;BME280;47660;51.334;12.396;2023-09-19T09:42:35;99797.94;;;41.61;17.97
54850;BME280;47660;51.334;12.396;2023-09-19T09:45:18;99803.03;;;41.59;17.11
54850;BME280;47660;51.334;12.396;2023-09-19T09:48:00;99797.56;;;41.85;18.16
54850;BME280;47660;51.334;12.396;2023-09-19T09:50:30;99798.94;;;43.25;16.37
54850;BME280;47660;51.334;12.396;2023-09-19T09:53:27;99809.34;;;43.72;16.51
54850;BME280;47660;51.334;12.396;2023-09-19T09:58:36;99802.00;;;41.86;17.82
54850;BME280;47660;51.334;12.396;2023-09-19T10:01:03;99804.13;;;40.67;18.23
54850;BME280;47660;51.334;12.396;2023-09-19T10:03:36;99803.09;;;39.79;19.42
54850;BME280;47660;51.334;12.396;2023-09-19T10:06:06;99805.97;;;39.07;21.05
54850;BME280;47660;51.334;12.396;2023-09-19T10:09:07;99818.63;;;40.78;19.05
54850;BME280;47660;51.334;12.396;2023-09-19T10:11:43;99820.16;;;39.25;19.87
54850;BME280;47660;51.334;12.396;2023-09-19T10:14:11;99824.19;;;39.00;19.92
54850;BME280;47660;51.334;12.396;2023-09-19T10:16:40;99828.88;;;38.80;19.70
54850;BME280;47660;51.334;12.396;2023-09-19T10:19:07;99828.97;;;38.94;21.01
54850;BME280;47660;51.334;12.396;2023-09-19T10:21:36;99830.00;;;39.50;19.92
54850;BME280;47660;51.334;12.396;2023-09-19T10:24:03;99826.97;;;39.00;20.62
54850;BME280;47660;51.334;12.396;2023-09-19T10:26:30;99834.94;;;39.40;20.02
54850;BME280;47660;51.334;12.396;2023-09-19T10:28:56;99831.00;;;38.88;20.91
54850;BME280;47660;51.334;12.396;2023-09-19T10:31:23;99831.63;;;39.37;19.71
54850;BME280;47660;51.334;12.396;2023-09-19T10:33:51;99832.91;;;39.26;19.80
54850;BME280;47660;51.334;12.396;2023-09-19T10:36:18;99827.97;;;40.17;19.59
54850;BME280;47660;51.334;12.396;2023-09-19T10:38:45;99820.94;;;40.20;19.28
54850;BME280;47660;51.334;12.396;2023-09-19T10:41:14;99829.72;;;40.69;20.19
54850;BME280;47660;51.334;12.396;2023-09-19T10:43:42;99824.47;;;40.90;19.22
54850;BME280;47660;51.334;12.396;2023-09-19T10:46:10;99833.31;;;40.69;18.99
54850;BME280;47660;51.334;12.396;2023-09-19T10:48:38;99833.59;;;41.05;19.54
54850;BME280;47660;51.334;12.396;2023-09-19T10:51:24;99834.84;;;40.62;18.68
54850;BME280;47660;51.334;12.396;2023-09-19T10:56:30;99830.41;;;41.34;17.70
54850;BME280;47660;51.334;12.396;2023-09-19T10:59:10;99831.97;;;42.62;17.80
54850;BME280;47660;51.334;12.396;2023-09-19T11:04:23;99825.88;;;43.21;17.12
54850;BME280;47660;51.334;12.396;2023-09-19T11:07:18;99827.94;;;41.55;18.15
54850;BME280;47660;51.334;12.396;2023-09-19T11:15:01;99840.97;;;42.00;17.15
54850;BME280;47660;51.334;12.396;2023-09-19T11:17:37;99829.84;;;42.18;17.49
54850;BME280;47660;51.334;12.396;2023-09-19T11:30:30;99822.44;;;41.73;16.64
54850;BME280;47660;51.334;12.396;2023-09-19T11:33:22;99820.66;;;43.02;15.30
54850;BME280;47660;51.334;12.396;2023-09-19T11:36:11;99823.88;;;43.48;14.69
54850;BME280;47660;51.334;12.396;2023-09-19T11:43:50;99805.63;;;45.13;14.28
54850;BME280;47660;51.334;12.396;2023-09-19T11:46:16;99813.91;;;44.16;15.86
54850;BME280;47660;51.334;12.396;2023-09-19T11:48:47;99813.28;;;45.25;14.08
54850;BME280;47660;51.334;12.396;2023-09-19T11:51:15;99816.41;;;44.90;14.44
54850;BME280;47660;51.334;12.396;2023-09-19T11:53:47;99818.88;;;44.70;14.56
54850;BME280;47660;51.334;12.396;2023-09-19T11:56:15;99817.22;;;44.69;15.68
54850;BME280;47660;51.334;12.396;2023-09-19T11:58:43;99811.22;;;44.79;15.28
54850;BME280;47660;51.334;12.396;2023-09-19T12:01:11;99811.06;;;44.97;13.98
54850;BME280;47660;51.334;12.396;2023-09-19T12:03:46;99808.41;;;44.28;14.87
54850;BME280;47660;51.334;12.396;2023-09-19T12:06:15;99794.69;;;44.35;14.69
54850;BME280;47660;51.334;12.396;2023-09-19T12:08:42;99806.47;;;45.14;14.24
54850;BME280;47660;51.334;12.396;2023-09-19T12:11:12;99816.22;;;45.87;13.67
54850;BME280;47660;51.334;12.396;2023-09-19T12:13:44;99816.16;;;43.36;15.32
54850;BME280;47660;51.334;12.396;2023-09-19T12:16:18;99814.84;;;40.96;17.19
54850;BME280;47660;51.334;12.396;2023-09-19T12:18:47;99815.69;;;42.81;15.58
54850;BME280;47660;51.334;12.396;2023-09-19T12:21:31;99806.78;;;43.14;15.57
54850;BME280;47660;51.334;12.396;2023-09-19T12:26:43;99814.25;;;38.74;19.16
54850;BME280;47660;51.334;12.396;2023-09-19T12:29:19;99811.16;;;38.57;19.48
54850;BME280;47660;51.334;12.396;2023-09-19T12:31:53;99809.78;;;38.30;19.58
54850;BME280;47660;51.334;12.396;2023-09-19T12:34:27;99808.88;;;37.62;20.41
54850;BME280;47660;51.334;12.396;2023-09-19T12:37:11;99799.09;;;40.41;18.37
54850;BME280;47660;51.334;12.396;2023-09-19T12:39:45;99801.28;;;41.04;17.87
54850;BME280;47660;51.334;12.396;2023-09-19T12:42:15;99804.25;;;39.45;18.78
54850;BME280;47660;51.334;12.396;2023-09-19T12:44:45;99803.94;;;39.79;18.09
54850;BME280;47660;51.334;12.396;2023-09-19T12:47:20;99806.88;;;38.64;19.45
54850;BME280;47660;51.334;12.396;2023-09-19T12:50:18;99799.38;;;38.84;19.57
54850;BME280;47660;51.334;12.396;2023-09-19T12:52:49;99806.47;;;36.75;20.57
54850;BME280;47660;51.334;12.396;2023-09-19T12:55:25;99800.78;;;37.65;19.91
54850;BME280;47660;51.334;12.396;2023-09-19T12:58:12;99794.34;;;38.24;19.29
54850;BME280;47660;51.334;12.396;2023-09-19T13:00:44;99797.25;;;37.25;20.21
54850;BME280;47660;51.334;12.396;2023-09-19T13:03:25;99791.78;;;37.14;20.31
54850;BME280;47660;51.334;12.396;2023-09-19T13:05:51;99790.78;;;37.05;20.03
54850;BME280;47660;51.334;12.396;2023-09-19T13:08:24;99792.78;;;36.39;21.62
54850;BME280;47660;51.334;12.396;2023-09-19T13:11:04;99795.34;;;37.25;20.65
54850;BME280;47660;51.334;12.396;2023-09-19T13:13:32;99792.22;;;36.97;21.28
54850;BME280;47660;51.334;12.396;2023-09-19T13:15:58;99783.06;;;36.52;21.40
54850;BME280;47660;51.334;12.396;2023-09-19T13:18:24;99785.03;;;36.51;21.34
54850;BME280;47660;51.334;12.396;2023-09-19T13:21:07;99781.94;;;36.53;21.23
54850;BME280;47660;51.334;12.396;2023-09-19T13:23:53;99777.38;;;36.22;22.30
54850;BME280;47660;51.334;12.396;2023-09-19T13:26:20;99780.53;;;34.81;23.33
54850;BME280;47660;51.334;12.396;2023-09-19T13:28:45;99775.56;;;35.87;22.65
54850;BME280;47660;51.334;12.396;2023-09-19T13:31:13;99776.16;;;35.27;22.59
54850;BME280;47660;51.334;12.396;2023-09-19T13:33:48;99776.44;;;36.48;21.80
54850;BME280;47660;51.334;12.396;2023-09-19T13:36:13;99763.09;;;35.89;22.75
54850;BME280;47660;51.334;12.396;2023-09-19T13:38:40;99767.00;;;35.73;22.46
54850;BME280;47660;51.334;12.396;2023-09-19T13:41:07;99769.66;;;36.14;21.86
54850;BME280;47660;51.334;12.396;2023-09-19T13:43:33;99767.84;;;35.73;22.26
54850;BME280;47660;51.334;12.396;2023-09-19T13:45:58;99781.13;;;35.09;23.10
54850;BME280;47660;51.334;12.396;2023-09-19T13:48:24;99772.31;;;35.28;22.58
54850;BME280;47660;51.334;12.396;2023-09-19T13:50:49;99782.41;;;34.55;23.01
54850;BME280;47660;51.334;12.396;2023-09-19T13:53:15;99769.25;;;35.19;22.94